createdAt,value
2023-02-01T00:13:41.277Z,63.30
2023-02-01T00:28:47.224Z,63.73
2023-02-01T00:43:52.229Z,63.33
2023-02-01T00:58:56.796Z,62.59
2023-02-01T01:14:02.036Z,61.58
2023-02-01T01:29:06.272Z,60.71
2023-02-01T01:44:29.844Z,59.84
2023-02-01T01:59:34.240Z,61.95
2023-02-01T02:14:39.043Z,61.52
2023-02-01T02:30:01.993Z,60.92
2023-02-01T02:45:28.445Z,61.25
2023-02-01T03:00:52.711Z,61.09
2023-02-01T03:16:17.657Z,61.21
2023-02-01T03:31:22.291Z,61.70
2023-02-01T03:46:37.614Z,61.45
2023-02-01T04:01:42.179Z,61.22
2023-02-01T04:16:47.716Z,61.16
2023-02-01T04:31:52.243Z,61.20
2023-02-01T04:46:57.082Z,61.29
2023-02-01T05:02:01.584Z,61.22
2023-02-01T05:17:06.315Z,61.20
2023-02-01T05:32:21.636Z,61.22
2023-02-01T05:47:27.318Z,61.20
2023-02-01T06:02:31.638Z,61.16
2023-02-01T06:17:36.144Z,60.63
2023-02-01T06:32:41.627Z,61.50
2023-02-01T06:47:46.317Z,60.48
2023-02-01T07:02:50.678Z,61.79
2023-02-01T07:17:58.348Z,61.46
2023-02-01T07:33:03.392Z,61.70
2023-02-01T07:48:08.358Z,61.66
2023-02-01T08:03:12.805Z,61.79
2023-02-01T08:18:19.207Z,63.17
2023-02-01T08:33:24.131Z,64.16
2023-02-01T08:48:29.792Z,65.10
2023-02-01T09:03:34.523Z,65.28
2023-02-01T09:18:46.104Z,65.73
2023-02-01T09:34:01.101Z,65.80
2023-02-01T09:49:11.541Z,65.89
2023-02-01T10:04:16.144Z,65.65
2023-02-01T10:19:30.520Z,65.84
2023-02-01T10:34:35.550Z,66.10
2023-02-01T10:49:41.970Z,66.51
2023-02-01T11:04:46.130Z,67.05
2023-02-01T11:20:00.258Z,67.74
2023-02-01T11:35:05.567Z,67.80
2023-02-01T11:50:20.187Z,68.16
2023-02-01T12:05:27.605Z,67.88
2023-02-01T12:20:37.878Z,67.55
2023-02-01T12:35:45.417Z,67.35
2023-02-01T12:50:52.074Z,67.40
2023-02-01T13:06:08.643Z,66.65
2023-02-01T13:21:16.384Z,65.66
2023-02-01T13:36:24.295Z,65.09
2023-02-01T13:51:36.843Z,65.65
2023-02-01T14:06:45.126Z,65.11
2023-02-01T14:21:50.529Z,63.88
2023-02-01T14:37:00.276Z,65.04
2023-02-01T14:52:06.833Z,65.34
2023-02-01T15:07:13.182Z,65.31
2023-02-01T15:22:20.005Z,65.98
2023-02-01T15:37:24.301Z,66.22
2023-02-01T15:52:35.269Z,66.78
2023-02-01T16:07:41.548Z,66.12
2023-02-01T16:22:46.432Z,65.80
2023-02-01T16:37:50.677Z,65.34
2023-02-01T16:52:59.721Z,64.63
2023-02-01T17:08:08.555Z,65.33
2023-02-01T17:23:23.881Z,65.18
2023-02-01T17:38:28.733Z,65.09
2023-02-01T17:53:36.142Z,65.10
2023-02-01T18:08:40.855Z,65.51
2023-02-01T18:23:46.764Z,66.65
2023-02-01T18:38:51.863Z,66.98
2023-02-01T19:16:54.282Z,66.50
2023-02-01T19:32:08.801Z,66.94
2023-02-01T19:47:30.399Z,66.26
2023-02-01T20:02:58.751Z,65.70
2023-02-01T20:18:27.360Z,65.47
2023-02-01T20:33:45.017Z,65.48
2023-02-01T20:49:19.446Z,66.36
2023-02-01T21:05:04.738Z,67.24
2023-02-01T21:20:28.532Z,68.26
2023-02-01T21:35:54.730Z,68.27
2023-02-01T21:52:00.326Z,68.27
2023-02-01T22:07:54.584Z,67.88
